sensor_id;sensor_type;location;lat;lon;timestamp;pressure;altitude;pressure_sealevel;temperature;humidity
29169;BME280;16219;42.864;23.360;2022-10-23T00:01:45;96344.53;;;9.16;100.00
29169;BME280;16219;42.864;23.360;2022-10-23T00:04:14;96331.88;;;9.18;100.00
29169;BME280;16219;42.864;23.360;2022-10-23T00:06:42;96331.78;;;9.23;100.00
29169;BME280;16219;42.864;23.360;2022-10-23T00:09:11;96327.00;;;9.25;100.00
29169;BME280;16219;42.864;23.360;2022-10-23T00:11:38;96328.09;;;9.24;100.00
29169;BME280;16219;42.864;23.360;2022-10-23T00:14:07;96339.91;;;9.26;100.00
29169;BME280;16219;42.864;23.360;2022-10-23T00:16:35;96325.38;;;9.29;100.00
29169;BME280;16219;42.864;23.360;2022-10-23T00:19:03;96320.09;;;9.29;100.00
29169;BME280;16219;42.864;23.360;2022-10-23T00:21:30;96308.78;;;9.29;100.00
29169;BME280;16219;42.864;23.360;2022-10-23T00:23:57;96313.84;;;9.25;100.00
29169;BME280;16219;42.864;23.360;2022-10-23T00:26:26;96319.13;;;9.25;100.00
29169;BME280;16219;42.864;23.360;2022-10-23T00:28:54;96341.25;;;9.24;100.00
29169;BME280;16219;42.864;23.360;2022-10-23T00:31:23;96349.34;;;9.27;100.00
29169;BME280;16219;42.864;23.360;2022-10-23T00:33:52;96358.19;;;9.18;100.00
29169;BME280;16219;42.864;23.360;2022-10-23T00:36:20;96347.63;;;8.85;100.00
29169;BME280;16219;42.864;23.360;2022-10-23T00:38:47;96369.81;;;8.98;100.00
29169;BME280;16219;42.864;23.360;2022-10-23T00:41:17;96364.09;;;8.91;100.00
29169;BME280;16219;42.864;23.360;2022-10-23T00:43:59;96358.63;;;9.06;100.00
29169;BME280;16219;42.864;23.360;2022-10-23T00:46:27;96363.81;;;9.11;100.00
29169;BME280;16219;42.864;23.360;2022-10-23T00:48:56;96350.66;;;9.11;100.00
29169;BME280;16219;42.864;23.360;2022-10-23T00:51:24;96344.06;;;9.14;100.00
29169;BME280;16219;42.864;23.360;2022-10-23T00:53:57;96347.38;;;9.19;100.00
29169;BME280;16219;42.864;23.360;2022-10-23T00:56:25;96357.63;;;9.21;100.00
29169;BME280;16219;42.864;23.360;2022-10-23T00:58:52;96362.88;;;9.21;100.00
29169;BME280;16219;42.864;23.360;2022-10-23T01:01:21;96361.31;;;9.20;100.00
29169;BME280;16219;42.864;23.360;2022-10-23T01:03:49;96380.25;;;9.22;100.00
29169;BME280;16219;42.864;23.360;2022-10-23T01:06:28;96381.38;;;9.16;100.00
29169;BME280;16219;42.864;23.360;2022-10-23T01:09:02;96392.06;;;9.06;100.00
29169;BME280;16219;42.864;23.360;2022-10-23T01:11:38;96389.09;;;8.93;100.00
29169;BME280;16219;42.864;23.360;2022-10-23T01:14:14;96389.94;;;9.08;100.00
29169;BME280;16219;42.864;23.360;2022-10-23T01:16:52;96386.38;;;8.98;100.00
29169;BME280;16219;42.864;23.360;2022-10-23T01:19:32;96387.03;;;9.09;100.00
29169;BME280;16219;42.864;23.360;2022-10-23T01:22:12;96391.41;;;8.95;100.00
29169;BME280;16219;42.864;23.360;2022-10-23T01:24:45;96374.28;;;8.97;100.00
29169;BME280;16219;42.864;23.360;2022-10-23T01:27:24;96387.44;;;8.79;100.00
29169;BME280;16219;42.864;23.360;2022-10-23T01:30:00;96380.16;;;8.70;100.00
29169;BME280;16219;42.864;23.360;2022-10-23T01:32:40;96369.44;;;8.67;100.00
29169;BME280;16219;42.864;23.360;2022-10-23T01:35:12;96372.84;;;8.67;100.00
29169;BME280;16219;42.864;23.360;2022-10-23T01:37:43;96376.81;;;8.65;100.00
29169;BME280;16219;42.864;23.360;2022-10-23T01:40:20;96380.38;;;8.74;100.00
29169;BME280;16219;42.864;23.360;2022-10-23T01:42:53;96389.78;;;8.80;100.00
29169;BME280;16219;42.864;23.360;2022-10-23T01:45:27;96385.22;;;8.86;100.00
29169;BME280;16219;42.864;23.360;2022-10-23T01:48:00;96370.38;;;8.76;100.00
29169;BME280;16219;42.864;23.360;2022-10-23T01:50:29;96391.97;;;8.92;100.00
29169;BME280;16219;42.864;23.360;2022-10-23T01:53:02;96383.13;;;8.88;100.00
29169;BME280;16219;42.864;23.360;2022-10-23T01:55:30;96379.28;;;8.80;100.00
29169;BME280;16219;42.864;23.360;2022-10-23T01:58:03;96371.56;;;8.65;100.00
29169;BME280;16219;42.864;23.360;2022-10-23T02:00:38;96369.63;;;8.51;100.00
29169;BME280;16219;42.864;23.360;2022-10-23T02:03:08;96366.16;;;8.56;100.00
29169;BME280;16219;42.864;23.360;2022-10-23T02:05:37;96365.81;;;8.63;100.00
29169;BME280;16219;42.864;23.360;2022-10-23T02:08:05;96374.81;;;8.57;100.00
29169;BME280;16219;42.864;23.360;2022-10-23T02:10:40;96380.88;;;8.57;100.00
29169;BME280;16219;42.864;23.360;2022-10-23T02:13:11;96386.19;;;8.52;100.00
29169;BME280;16219;42.864;23.360;2022-10-23T02:15:45;96371.94;;;8.58;100.00
29169;BME280;16219;42.864;23.360;2022-10-23T02:18:20;96379.38;;;8.70;100.00
29169;BME280;16219;42.864;23.360;2022-10-23T02:20:54;96379.31;;;8.56;100.00
29169;BME280;16219;42.864;23.360;2022-10-23T02:23:28;96373.34;;;8.50;100.00
29169;BME280;16219;42.864;23.360;2022-10-23T02:26:00;96368.94;;;8.46;100.00
29169;BME280;16219;42.864;23.360;2022-10-23T02:28:36;96372.19;;;8.38;100.00
29169;BME280;16219;42.864;23.360;2022-10-23T02:31:11;96369.69;;;8.46;100.00
29169;BME280;16219;42.864;23.360;2022-10-23T02:33:39;96369.56;;;8.57;100.00
29169;BME280;16219;42.864;23.360;2022-10-23T02:36:07;96383.78;;;8.56;100.00
29169;BME280;16219;42.864;23.360;2022-10-23T02:38:36;96392.28;;;8.47;100.00
29169;BME280;16219;42.864;23.360;2022-10-23T02:41:19;96395.38;;;8.55;100.00
29169;BME280;16219;42.864;23.360;2022-10-23T02:44:02;96398.63;;;8.46;100.00
29169;BME280;16219;42.864;23.360;2022-10-23T02:46:38;96403.00;;;8.27;100.00
29169;BME280;16219;42.864;23.360;2022-10-23T02:49:12;96394.63;;;8.25;100.00
29169;BME280;16219;42.864;23.360;2022-10-23T02:51:53;96395.06;;;8.32;100.00
29169;BME280;16219;42.864;23.360;2022-10-23T02:54:33;96388.19;;;8.41;100.00
29169;BME280;16219;42.864;23.360;2022-10-23T02:57:07;96386.81;;;8.44;100.00
29169;BME280;16219;42.864;23.360;2022-10-23T02:59:43;96401.81;;;8.43;100.00
29169;BME280;16219;42.864;23.360;2022-10-23T03:02:16;96404.38;;;8.48;100.00
29169;BME280;16219;42.864;23.360;2022-10-23T03:04:47;96408.63;;;8.44;100.00
29169;BME280;16219;42.864;23.360;2022-10-23T03:07:14;96421.28;;;8.42;100.00
29169;BME280;16219;42.864;23.360;2022-10-23T03:09:44;96428.88;;;8.44;100.00
29169;BME280;16219;42.864;23.360;2022-10-23T03:12:13;96425.41;;;8.48;100.00
29169;BME280;16219;42.864;23.360;2022-10-23T03:14:41;96424.91;;;8.46;100.00
29169;BME280;16219;42.864;23.360;2022-10-23T03:17:09;96422.00;;;8.48;100.00
29169;BME280;16219;42.864;23.360;2022-10-23T03:19:36;96422.06;;;8.43;100.00
29169;BME280;16219;42.864;23.360;2022-10-23T03:22:04;96421.50;;;8.46;100.00
29169;BME280;16219;42.864;23.360;2022-10-23T03:24:31;96417.97;;;8.56;100.00
29169;BME280;16219;42.864;23.360;2022-10-23T03:26:58;96422.69;;;8.59;100.00
29169;BME280;16219;42.864;23.360;2022-10-23T03:29:31;96422.22;;;8.51;100.00
29169;BME280;16219;42.864;23.360;2022-10-23T03:31:59;96421.69;;;8.55;100.00
29169;BME280;16219;42.864;23.360;2022-10-23T03:34:27;96438.00;;;8.51;100.00
29169;BME280;16219;42.864;23.360;2022-10-23T03:36:54;96437.44;;;8.55;100.00
29169;BME280;16219;42.864;23.360;2022-10-23T03:39:21;96432.47;;;8.53;100.00
29169;BME280;16219;42.864;23.360;2022-10-23T03:41:48;96437.13;;;8.37;100.00
29169;BME280;16219;42.864;23.360;2022-10-23T03:44:16;96431.66;;;8.29;100.00
29169;BME280;16219;42.864;23.360;2022-10-23T03:46:44;96448.16;;;8.34;100.00
29169;BME280;16219;42.864;23.360;2022-10-23T03:49:12;96440.34;;;8.24;100.00
29169;BME280;16219;42.864;23.360;2022-10-23T03:51:42;96441.38;;;8.28;100.00
29169;BME280;16219;42.864;23.360;2022-10-23T03:54:17;96444.63;;;8.20;100.00
29169;BME280;16219;42.864;23.360;2022-10-23T03:56:45;96436.41;;;8.26;100.00
29169;BME280;16219;42.864;23.360;2022-10-23T03:59:12;96440.94;;;8.21;100.00
29169;BME280;16219;42.864;23.360;2022-10-23T04:01:39;96444.63;;;8.20;100.00
29169;BME280;16219;42.864;23.360;2022-10-23T04:04:07;96465.09;;;8.23;100.00
29169;BME280;16219;42.864;23.360;2022-10-23T04:06:36;96458.50;;;8.25;100.00
29169;BME280;16219;42.864;23.360;2022-10-23T04:09:03;96463.75;;;8.25;100.00
29169;BME280;16219;42.864;23.360;2022-10-23T04:11:31;96470.34;;;8.23;100.00
29169;BME280;16219;42.864;23.360;2022-10-23T04:13:58;96461.44;;;8.19;100.00
29169;BME280;16219;42.864;23.360;2022-10-23T04:16:26;96467.53;;;8.14;100.00
29169;BME280;16219;42.864;23.360;2022-10-23T04:18:53;96470.41;;;8.18;100.00
29169;BME280;16219;42.864;23.360;2022-10-23T04:21:21;96467.34;;;8.06;100.00
29169;BME280;16219;42.864;23.360;2022-10-23T04:23:50;96474.16;;;8.07;100.00
29169;BME280;16219;42.864;23.360;2022-10-23T04:26:17;96459.22;;;8.02;100.00
29169;BME280;16219;42.864;23.360;2022-10-23T04:28:44;96459.56;;;7.95;100.00
29169;BME280;16219;42.864;23.360;2022-10-23T04:31:11;96462.75;;;7.92;100.00
29169;BME280;16219;42.864;23.360;2022-10-23T04:33:40;96461.44;;;7.90;100.00
29169;BME280;16219;42.864;23.360;2022-10-23T04:36:07;96474.88;;;7.88;100.00
29169;BME280;16219;42.864;23.360;2022-10-23T04:38:35;96461.81;;;7.78;100.00
29169;BME280;16219;42.864;23.360;2022-10-23T04:41:07;96457.41;;;7.73;100.00
29169;BME280;16219;42.864;23.360;2022-10-23T04:43:34;96462.31;;;7.80;100.00
29169;BME280;16219;42.864;23.360;2022-10-23T04:46:02;96471.56;;;7.78;100.00
29169;BME280;16219;42.864;23.360;2022-10-23T04:48:30;96463.66;;;7.78;100.00
29169;BME280;16219;42.864;23.360;2022-10-23T04:51:15;96470.44;;;7.84;100.00
29169;BME280;16219;42.864;23.360;2022-10-23T04:54:01;96482.25;;;7.81;100.00
29169;BME280;16219;42.864;23.360;2022-10-23T04:56:55;96481.81;;;7.74;100.00
29169;BME280;16219;42.864;23.360;2022-10-23T04:59:23;96489.94;;;7.72;100.00
29169;BME280;16219;42.864;23.360;2022-10-23T05:01:51;96472.97;;;7.65;100.00
29169;BME280;16219;42.864;23.360;2022-10-23T05:04:18;96471.41;;;7.59;100.00
29169;BME280;16219;42.864;23.360;2022-10-23T05:07:04;96475.09;;;7.58;100.00
29169;BME280;16219;42.864;23.360;2022-10-23T05:10:06;96469.31;;;7.61;100.00
29169;BME280;16219;42.864;23.360;2022-10-23T05:12:44;96474.00;;;7.64;100.00
29169;BME280;16219;42.864;23.360;2022-10-23T05:15:11;96489.22;;;7.67;100.00
29169;BME280;16219;42.864;23.360;2022-10-23T05:17:40;96494.25;;;7.58;100.00
29169;BME280;16219;42.864;23.360;2022-10-23T05:20:13;96486.38;;;7.58;100.00
29169;BME280;16219;42.864;23.360;2022-10-23T05:22:43;96486.63;;;7.62;100.00
29169;BME280;16219;42.864;23.360;2022-10-23T05:25:13;96494.38;;;7.77;100.00
29169;BME280;16219;42.864;23.360;2022-10-23T05:27:50;96490.97;;;7.82;100.00
29169;BME280;16219;42.864;23.360;2022-10-23T05:30:18;96497.50;;;7.84;100.00
29169;BME280;16219;42.864;23.360;2022-10-23T05:32:45;96498.78;;;7.87;100.00
29169;BME280;16219;42.864;23.360;2022-10-23T05:35:16;96504.28;;;7.90;100.00
29169;BME280;16219;42.864;23.360;2022-10-23T05:37:48;96510.56;;;7.94;100.00
29169;BME280;16219;42.864;23.360;2022-10-23T05:40:22;96510.75;;;7.98;100.00
29169;BME280;16219;42.864;23.360;2022-10-23T05:42:59;96496.84;;;7.97;100.00
29169;BME280;16219;42.864;23.360;2022-10-23T05:45:44;96495.91;;;8.17;100.00
29169;BME280;16219;42.864;23.360;2022-10-23T05:48:40;96510.41;;;8.10;100.00
29169;BME280;16219;42.864;23.360;2022-10-23T05:51:26;96518.19;;;8.25;100.00
29169;BME280;16219;42.864;23.360;2022-10-23T05:54:13;96526.00;;;8.30;100.00
29169;BME280;16219;42.864;23.360;2022-10-23T05:56:47;96523.09;;;8.32;100.00
29169;BME280;16219;42.864;23.360;2022-10-23T05:59:22;96533.00;;;8.45;100.00
29169;BME280;16219;42.864;23.360;2022-10-23T06:01:57;96529.44;;;8.60;100.00
29169;BME280;16219;42.864;23.360;2022-10-23T06:04:35;96520.66;;;8.69;100.00
29169;BME280;16219;42.864;23.360;2022-10-23T06:07:31;96525.47;;;8.86;100.00
29169;BME280;16219;42.864;23.360;2022-10-23T06:10:00;96522.78;;;8.91;100.00
29169;BME280;16219;42.864;23.360;2022-10-23T06:12:30;96525.22;;;9.07;100.00
29169;BME280;16219;42.864;23.360;2022-10-23T06:14:59;96529.25;;;9.23;100.00
29169;BME280;16219;42.864;23.360;2022-10-23T06:17:44;96528.19;;;9.43;100.00
29169;BME280;16219;42.864;23.360;2022-10-23T06:20:11;96530.69;;;9.53;100.00
29169;BME280;16219;42.864;23.360;2022-10-23T06:22:40;96530.97;;;9.51;100.00
29169;BME280;16219;42.864;23.360;2022-10-23T06:25:24;96526.91;;;9.78;100.00
29169;BME280;16219;42.864;23.360;2022-10-23T06:27:54;96531.94;;;9.93;100.00
29169;BME280;16219;42.864;23.360;2022-10-23T06:30:24;96524.53;;;9.95;100.00
29169;BME280;16219;42.864;23.360;2022-10-23T06:32:52;96528.72;;;10.15;100.00
29169;BME280;16219;42.864;23.360;2022-10-23T06:35:20;96529.88;;;10.23;100.00
29169;BME280;16219;42.864;23.360;2022-10-23T06:37:47;96526.13;;;10.29;100.00
29169;BME280;16219;42.864;23.360;2022-10-23T06:40:20;96535.41;;;10.40;100.00
29169;BME280;16219;42.864;23.360;2022-10-23T06:43:00;96537.81;;;10.56;100.00
29169;BME280;16219;42.864;23.360;2022-10-23T06:45:51;96535.47;;;10.68;100.00
29169;BME280;16219;42.864;23.360;2022-10-23T06:48:54;96537.84;;;10.97;100.00
29169;BME280;16219;42.864;23.360;2022-10-23T06:51:25;96545.28;;;11.09;100.00
29169;BME280;16219;42.864;23.360;2022-10-23T06:53:55;96537.22;;;11.27;100.00
29169;BME280;16219;42.864;23.360;2022-10-23T06:56:54;96532.59;;;11.47;100.00
29169;BME280;16219;42.864;23.360;2022-10-23T06:59:30;96547.63;;;11.60;100.00
29169;BME280;16219;42.864;23.360;2022-10-23T07:01:58;96541.41;;;11.79;100.00
29169;BME280;16219;42.864;23.360;2022-10-23T07:04:27;96535.25;;;12.06;100.00
29169;BME280;16219;42.864;23.360;2022-10-23T07:06:54;96538.00;;;12.23;100.00
29169;BME280;16219;42.864;23.360;2022-10-23T07:09:28;96539.41;;;12.51;100.00
29169;BME280;16219;42.864;23.360;2022-10-23T07:11:55;96542.22;;;12.86;100.00
29169;BME280;16219;42.864;23.360;2022-10-23T07:14:31;96548.59;;;13.25;100.00
29169;BME280;16219;42.864;23.360;2022-10-23T07:17:02;96558.81;;;13.75;100.00
29169;BME280;16219;42.864;23.360;2022-10-23T07:19:29;96563.97;;;14.23;100.00
29169;BME280;16219;42.864;23.360;2022-10-23T07:22:02;96566.56;;;14.67;100.00
29169;BME280;16219;42.864;23.360;2022-10-23T07:24:39;96566.75;;;15.00;100.00
29169;BME280;16219;42.864;23.360;2022-10-23T07:27:22;96573.69;;;15.22;100.00
29169;BME280;16219;42.864;23.360;2022-10-23T07:29:54;96565.91;;;15.46;100.00
29169;BME280;16219;42.864;23.360;2022-10-23T07:32:24;96569.69;;;15.66;100.00
29169;BME280;16219;42.864;23.360;2022-10-23T07:35:12;96557.38;;;15.83;100.00
29169;BME280;16219;42.864;23.360;2022-10-23T07:37:48;96565.47;;;16.07;100.00
29169;BME280;16219;42.864;23.360;2022-10-23T07:40:16;96570.00;;;16.28;100.00
29169;BME280;16219;42.864;23.360;2022-10-23T07:42:44;96569.97;;;16.48;100.00
29169;BME280;16219;42.864;23.360;2022-10-23T07:45:11;96567.22;;;16.57;100.00
29169;BME280;16219;42.864;23.360;2022-10-23T07:47:42;96560.44;;;16.60;100.00
29169;BME280;16219;42.864;23.360;2022-10-23T07:50:12;96569.25;;;16.72;100.00
29169;BME280;16219;42.864;23.360;2022-10-23T07:52:40;96554.19;;;16.89;100.00
29169;BME280;16219;42.864;23.360;2022-10-23T07:55:12;96549.41;;;16.94;100.00
29169;BME280;16219;42.864;23.360;2022-10-23T07:57:47;96564.41;;;17.11;100.00
29169;BME280;16219;42.864;23.360;2022-10-23T08:00:41;96562.63;;;17.28;100.00
29169;BME280;16219;42.864;23.360;2022-10-23T08:03:25;96558.06;;;17.40;100.00
29169;BME280;16219;42.864;23.360;2022-10-23T08:05:54;96560.97;;;17.47;100.00
29169;BME280;16219;42.864;23.360;2022-10-23T08:08:22;96569.38;;;17.62;100.00
29169;BME280;16219;42.864;23.360;2022-10-23T08:10:55;96562.72;;;17.68;100.00
29169;BME280;16219;42.864;23.360;2022-10-23T08:13:27;96563.16;;;17.70;100.00
29169;BME280;16219;42.864;23.360;2022-10-23T08:16:00;96565.94;;;17.86;100.00
29169;BME280;16219;42.864;23.360;2022-10-23T08:18:47;96571.56;;;17.96;100.00
29169;BME280;16219;42.864;23.360;2022-10-23T08:21:17;96572.44;;;18.01;100.00
29169;BME280;16219;42.864;23.360;2022-10-23T08:23:45;96556.22;;;17.93;100.00
29169;BME280;16219;42.864;23.360;2022-10-23T08:26:12;96564.97;;;18.06;100.00
29169;BME280;16219;42.864;23.360;2022-10-23T08:28:40;96562.41;;;18.10;100.00
29169;BME280;16219;42.864;23.360;2022-10-23T08:31:08;96563.03;;;18.19;100.00
29169;BME280;16219;42.864;23.360;2022-10-23T08:33:37;96570.13;;;18.27;100.00
29169;BME280;16219;42.864;23.360;2022-10-23T08:36:15;96574.97;;;18.37;100.00
29169;BME280;16219;42.864;23.360;2022-10-23T08:38:43;96561.19;;;18.35;100.00
29169;BME280;16219;42.864;23.360;2022-10-23T08:41:22;96559.91;;;18.45;100.00
29169;BME280;16219;42.864;23.360;2022-10-23T08:44:00;96561.25;;;18.39;100.00
29169;BME280;16219;42.864;23.360;2022-10-23T08:46:41;96555.84;;;18.35;100.00
29169;BME280;16219;42.864;23.360;2022-10-23T08:49:22;96565.00;;;18.50;100.00
29169;BME280;16219;42.864;23.360;2022-10-23T08:51:59;96552.09;;;18.52;100.00
29169;BME280;16219;42.864;23.360;2022-10-23T08:54:37;96558.88;;;18.49;100.00
29169;BME280;16219;42.864;23.360;2022-10-23T08:57:14;96555.03;;;18.63;100.00
29169;BME280;16219;42.864;23.360;2022-10-23T08:59:46;96553.44;;;18.74;100.00
29169;BME280;16219;42.864;23.360;2022-10-23T09:02:18;96555.69;;;18.88;100.00
29169;BME280;16219;42.864;23.360;2022-10-23T09:04:48;96552.16;;;19.00;100.00
29169;BME280;16219;42.864;23.360;2022-10-23T09:07:26;96545.50;;;19.09;100.00
29169;BME280;16219;42.864;23.360;2022-10-23T09:10:06;96547.13;;;19.14;100.00
29169;BME280;16219;42.864;23.360;2022-10-23T09:12:40;96548.84;;;19.22;100.00
29169;BME280;16219;42.864;23.360;2022-10-23T09:15:15;96544.75;;;19.28;100.00
29169;BME280;16219;42.864;23.360;2022-10-23T09:17:44;96545.91;;;19.27;100.00
29169;BME280;16219;42.864;23.360;2022-10-23T09:20:17;96546.06;;;19.34;100.00
29169;BME280;16219;42.864;23.360;2022-10-23T09:22:47;96547.78;;;19.42;100.00
29169;BME280;16219;42.864;23.360;2022-10-23T09:25:19;96543.41;;;19.54;100.00
29169;BME280;16219;42.864;23.360;2022-10-23T09:27:48;96551.19;;;19.59;100.00
29169;BME280;16219;42.864;23.360;2022-10-23T09:30:27;96552.41;;;19.61;100.00
29169;BME280;16219;42.864;23.360;2022-10-23T09:32:56;96563.44;;;19.60;97.51
29169;BME280;16219;42.864;23.360;2022-10-23T09:35:26;96561.75;;;19.52;99.03
29169;BME280;16219;42.864;23.360;2022-10-23T09:37:55;96557.16;;;19.52;99.90
29169;BME280;16219;42.864;23.360;2022-10-23T09:40:28;96556.81;;;19.54;95.47
29169;BME280;16219;42.864;23.360;2022-10-23T09:42:59;96558.97;;;19.64;96.67
29169;BME280;16219;42.864;23.360;2022-10-23T09:45:31;96569.00;;;19.67;95.68
29169;BME280;16219;42.864;23.360;2022-10-23T09:48:14;96562.94;;;19.70;97.78
29169;BME280;16219;42.864;23.360;2022-10-23T09:50:51;96559.91;;;19.71;95.17
29169;BME280;16219;42.864;23.360;2022-10-23T09:53:26;96550.91;;;19.80;94.32
29169;BME280;16219;42.864;23.360;2022-10-23T09:55:57;96544.28;;;19.93;93.82
29169;BME280;16219;42.864;23.360;2022-10-23T09:58:32;96535.47;;;19.92;90.59
29169;BME280;16219;42.864;23.360;2022-10-23T10:01:00;96544.28;;;19.93;87.54
29169;BME280;16219;42.864;23.360;2022-10-23T10:03:49;96536.19;;;19.89;89.78
29169;BME280;16219;42.864;23.360;2022-10-23T10:06:25;96531.22;;;19.91;88.60
29169;BME280;16219;42.864;23.360;2022-10-23T10:08:56;96534.47;;;20.01;95.00
29169;BME280;16219;42.864;23.360;2022-10-23T10:11:28;96532.50;;;20.17;93.67
29169;BME280;16219;42.864;23.360;2022-10-23T10:14:19;96533.03;;;20.26;93.63
29169;BME280;16219;42.864;23.360;2022-10-23T10:16:54;96530.72;;;20.44;88.27
29169;BME280;16219;42.864;23.360;2022-10-23T10:19:33;96530.34;;;20.45;91.44
29169;BME280;16219;42.864;23.360;2022-10-23T10:22:10;96527.00;;;20.49;84.46
29169;BME280;16219;42.864;23.360;2022-10-23T10:24:47;96533.03;;;20.45;88.28
29169;BME280;16219;42.864;23.360;2022-10-23T10:27:24;96534.47;;;20.39;88.01
29169;BME280;16219;42.864;23.360;2022-10-23T10:30:01;96531.78;;;20.39;89.38
29169;BME280;16219;42.864;23.360;2022-10-23T10:32:34;96528.97;;;20.32;90.20
29169;BME280;16219;42.864;23.360;2022-10-23T10:35:18;96525.91;;;20.34;92.98
29169;BME280;16219;42.864;23.360;2022-10-23T10:38:01;96528.66;;;20.37;91.97
29169;BME280;16219;42.864;23.360;2022-10-23T10:40:33;96517.72;;;20.46;91.46
29169;BME280;16219;42.864;23.360;2022-10-23T10:43:13;96526.81;;;20.41;90.43
29169;BME280;16219;42.864;23.360;2022-10-23T10:45:46;96520.00;;;20.44;89.61
29169;BME280;16219;42.864;23.360;2022-10-23T10:48:26;96529.09;;;20.39;87.93
29169;BME280;16219;42.864;23.360;2022-10-23T10:51:21;96514.56;;;20.40;88.06
29169;BME280;16219;42.864;23.360;2022-10-23T10:54:20;96513.06;;;20.43;87.32
29169;BME280;16219;42.864;23.360;2022-10-23T10:56:56;96508.69;;;20.54;89.08
29169;BME280;16219;42.864;23.360;2022-10-23T10:59:27;96505.06;;;20.66;87.61
29169;BME280;16219;42.864;23.360;2022-10-23T11:02:00;96502.78;;;20.68;85.88
29169;BME280;16219;42.864;23.360;2022-10-23T11:04:34;96488.16;;;20.62;86.35
29169;BME280;16219;42.864;23.360;2022-10-23T11:07:06;96500.53;;;20.70;83.85
29169;BME280;16219;42.864;23.360;2022-10-23T11:09:35;96503.63;;;20.72;86.08
29169;BME280;16219;42.864;23.360;2022-10-23T11:12:05;96502.78;;;20.68;83.31
29169;BME280;16219;42.864;23.360;2022-10-23T11:14:33;96490.66;;;20.74;83.25
29169;BME280;16219;42.864;23.360;2022-10-23T11:17:08;96485.03;;;20.83;81.53
29169;BME280;16219;42.864;23.360;2022-10-23T11:19:42;96484.97;;;20.79;84.11
29169;BME280;16219;42.864;23.360;2022-10-23T11:22:19;96490.03;;;20.84;84.06
29169;BME280;16219;42.864;23.360;2022-10-23T11:25:09;96482.06;;;20.88;80.06
29169;BME280;16219;42.864;23.360;2022-10-23T11:28:03;96478.53;;;20.84;82.50
29169;BME280;16219;42.864;23.360;2022-10-23T11:30:40;96477.97;;;20.97;79.42
29169;BME280;16219;42.864;23.360;2022-10-23T11:33:52;96472.53;;;20.90;75.03
29169;BME280;16219;42.864;23.360;2022-10-23T11:36:40;96466.09;;;20.72;77.80
29169;BME280;16219;42.864;23.360;2022-10-23T11:39:19;96464.66;;;20.78;79.16
29169;BME280;16219;42.864;23.360;2022-10-23T11:41:50;96467.44;;;20.85;82.11
29169;BME280;16219;42.864;23.360;2022-10-23T11:44:25;96466.84;;;20.95;78.62
29169;BME280;16219;42.864;23.360;2022-10-23T11:47:01;96459.38;;;21.08;75.11
29169;BME280;16219;42.864;23.360;2022-10-23T11:49:29;96458.28;;;21.13;75.79
29169;BME280;16219;42.864;23.360;2022-10-23T11:52:00;96456.94;;;21.26;76.30
29169;BME280;16219;42.864;23.360;2022-10-23T11:54:28;96460.75;;;21.25;70.37
29169;BME280;16219;42.864;23.360;2022-10-23T11:57:10;96456.00;;;21.15;71.91
29169;BME280;16219;42.864;23.360;2022-10-23T11:59:53;96445.25;;;21.15;76.61
29169;BME280;16219;42.864;23.360;2022-10-23T12:02:27;96459.88;;;21.17;73.11
29169;BME280;16219;42.864;23.360;2022-10-23T12:04:58;96453.31;;;21.15;75.31
29169;BME280;16219;42.864;23.360;2022-10-23T12:07:29;96445.84;;;21.01;71.40
29169;BME280;16219;42.864;23.360;2022-10-23T12:09:59;96449.28;;;21.02;72.72
29169;BME280;16219;42.864;23.360;2022-10-23T12:12:32;96439.72;;;21.01;73.11
29169;BME280;16219;42.864;23.360;2022-10-23T12:15:18;96454.41;;;21.10;71.40
29169;BME280;16219;42.864;23.360;2022-10-23T12:17:47;96445.25;;;21.11;70.39
29169;BME280;16219;42.864;23.360;2022-10-23T12:20:29;96439.81;;;21.08;72.29
29169;BME280;16219;42.864;23.360;2022-10-23T12:23:17;96439.03;;;21.07;72.63
29169;BME280;16219;42.864;23.360;2022-10-23T12:25:56;96447.44;;;21.06;73.60
29169;BME280;16219;42.864;23.360;2022-10-23T12:28:32;96444.69;;;21.02;74.09
29169;BME280;16219;42.864;23.360;2022-10-23T12:31:16;96438.25;;;21.07;74.36
29169;BME280;16219;42.864;23.360;2022-10-23T12:33:55;96446.84;;;21.16;73.71
29169;BME280;16219;42.864;23.360;2022-10-23T12:36:36;96444.44;;;21.11;72.41
29169;BME280;16219;42.864;23.360;2022-10-23T12:39:23;96441.41;;;21.12;70.83
29169;BME280;16219;42.864;23.360;2022-10-23T12:41:51;96434.91;;;21.13;70.26
29169;BME280;16219;42.864;23.360;2022-10-23T12:44:19;96445.25;;;21.15;69.41
29169;BME280;16219;42.864;23.360;2022-10-23T12:46:50;96439.91;;;21.15;69.99
29169;BME280;16219;42.864;23.360;2022-10-23T12:49:22;96442.13;;;21.09;71.17
29169;BME280;16219;42.864;23.360;2022-10-23T12:51:54;96446.66;;;21.05;70.21
29169;BME280;16219;42.864;23.360;2022-10-23T12:54:22;96444.34;;;21.04;72.66
29169;BME280;16219;42.864;23.360;2022-10-23T12:56:49;96452.72;;;20.99;72.81
29169;BME280;16219;42.864;23.360;2022-10-23T12:59:20;96453.88;;;21.01;74.05
29169;BME280;16219;42.864;23.360;2022-10-23T13:01:53;96452.28;;;20.96;74.18
29169;BME280;16219;42.864;23.360;2022-10-23T13:04:27;96454.59;;;20.98;70.30
29169;BME280;16219;42.864;23.360;2022-10-23T13:06:57;96445.06;;;21.01;72.35
29169;BME280;16219;42.864;23.360;2022-10-23T13:09:28;96436.88;;;20.90;71.50
29169;BME280;16219;42.864;23.360;2022-10-23T13:12:21;96449.03;;;20.84;72.54
29169;BME280;16219;42.864;23.360;2022-10-23T13:14:58;96437.03;;;20.74;70.08
29169;BME280;16219;42.864;23.360;2022-10-23T13:17:36;96445.66;;;20.64;73.07
29169;BME280;16219;42.864;23.360;2022-10-23T13:20:25;96445.97;;;20.59;72.86
29169;BME280;16219;42.864;23.360;2022-10-23T13:22:58;96440.91;;;20.54;73.69